Time;durP1;ratioP1;P1;durP2;ratioP2;P2;SDS_P1;SDS_P2;PMS_P1;PMS_P2;Temp;Humidity;BMP_temperature;BMP_pressure;BME280_temperature;BME280_humidity;BME280_pressure;Samples;Min_cycle;Max_cycle;Signal;HPM_P1;HPM_P2
2023/08/22 00:00:43;;;;;;;3.53;3.17;;;;;;;17.50;93.33;102122.38;6279675;22;20056;-77
2023/08/22 00:03:09;;;;;;;3.90;3.35;;;;;;;17.49;93.65;102120.91;6252441;22;20446;-75
2023/08/22 00:05:36;;;;;;;9.13;3.55;;;;;;;17.45;94.43;102125.69;6279853;22;20017;-75
2023/08/22 00:08:06;;;;;;;4.68;3.67;;;;;;;17.44;94.80;102127.63;6280377;22;20020;-75
2023/08/22 00:10:33;;;;;;;6.22;3.33;;;;;;;17.44;94.35;102135.72;6279523;22;20016;-76
2023/08/22 00:13:01;;;;;;;5.15;3.33;;;;;;;17.42;94.54;102124.66;6279897;22;20022;-76
2023/08/22 00:15:28;;;;;;;3.85;3.20;;;;;;;17.37;94.69;102130.66;6279360;22;20019;-76
2023/08/22 00:17:55;;;;;;;3.55;3.28;;;;;;;17.34;94.76;102131.53;6252254;22;20588;-76
2023/08/22 00:20:25;;;;;;;3.65;3.28;;;;;;;17.29;95.33;102127.50;6279078;22;20446;-76
2023/08/22 00:22:51;;;;;;;5.68;3.35;;;;;;;17.26;94.90;102122.28;6280135;22;20021;-76
2023/08/22 00:25:18;;;;;;;3.55;3.13;;;;;;;17.26;95.09;102122.28;6280293;22;20104;-76
2023/08/22 00:27:45;;;;;;;4.43;3.30;;;;;;;17.27;95.07;102124.53;6279324;22;20449;-76
2023/08/22 00:30:11;;;;;;;4.30;3.50;;;;;;;17.29;95.19;102124.09;6279211;22;20055;-76
2023/08/22 00:32:38;;;;;;;4.43;4.03;;;;;;;17.25;95.78;102121.53;6278664;22;20336;-76
2023/08/22 00:35:05;;;;;;;5.10;3.67;;;;;;;17.20;95.77;102124.84;6252624;22;20350;-76
2023/08/22 00:37:31;;;;;;;3.60;3.30;;;;;;;17.18;96.17;102121.13;6278966;22;20020;-76
2023/08/22 00:40:00;;;;;;;8.90;3.10;;;;;;;17.18;95.88;102113.81;6251864;22;20024;-76
2023/08/22 00:42:27;;;;;;;5.03;3.10;;;;;;;17.20;95.11;102110.63;6278957;22;20020;-76
2023/08/22 00:44:56;;;;;;;3.30;3.10;;;;;;;17.19;95.43;102101.84;6252421;22;20016;-77
2023/08/22 00:47:23;;;;;;;4.10;3.20;;;;;;;17.18;95.54;102100.34;6278840;22;20016;-76
2023/08/22 00:49:50;;;;;;;3.58;3.28;;;;;;;17.15;95.98;102093.19;6280605;22;20012;-78
2023/08/22 00:52:17;;;;;;;3.92;3.35;;;;;;;17.14;95.98;102101.72;6252791;22;20135;-77
2023/08/22 00:54:44;;;;;;;4.35;2.92;;;;;;;17.14;95.80;102102.47;6253390;22;20139;-76
2023/08/22 00:57:10;;;;;;;6.40;3.45;;;;;;;17.12;96.27;102101.41;6252781;22;20044;-77
2023/08/22 00:59:38;;;;;;;5.30;3.33;;;;;;;17.08;96.21;102106.94;6279308;22;20012;-76
2023/08/22 01:02:07;;;;;;;5.47;3.38;;;;;;;17.07;96.57;102108.16;6251388;22;20090;-76
2023/08/22 01:04:33;;;;;;;3.70;3.40;;;;;;;17.04;96.25;102106.34;6252531;22;20066;-76
2023/08/22 01:07:25;;;;;;;3.30;3.03;;;;;;;16.97;96.81;102109.34;6280004;22;20017;-77
2023/08/22 01:10:00;;;;;;;5.95;3.28;;;;;;;16.96;96.71;102103.22;6280075;22;20013;-76
2023/08/22 01:12:39;;;;;;;2.80;2.60;;;;;;;16.96;96.14;102091.72;6279469;22;20051;-77
2023/08/22 01:15:28;;;;;;;3.47;3.08;;;;;;;16.97;96.13;102095.91;6251914;22;20017;-77
2023/08/22 01:17:58;;;;;;;4.70;3.17;;;;;;;16.95;96.35;102090.97;6279619;22;20020;-76
2023/08/22 01:20:26;;;;;;;10.00;3.35;;;;;;;16.95;96.53;102076.78;6279216;22;20043;-76
2023/08/22 01:22:54;;;;;;;3.70;3.40;;;;;;;16.93;96.99;102069.16;6279959;22;20460;-77
2023/08/22 01:25:21;;;;;;;5.50;3.50;;;;;;;16.93;96.71;102068.41;6279156;22;20039;-76
2023/08/22 01:28:11;;;;;;;5.15;3.10;;;;;;;16.94;96.67;102070.66;6280165;22;20012;-76
2023/08/22 01:31:04;;;;;;;5.55;3.28;;;;;;;16.90;97.05;102080.06;6278798;22;20067;-77
2023/08/22 01:33:38;;;;;;;4.07;3.40;;;;;;;16.87;97.29;102068.28;6251747;22;20020;-76
2023/08/22 01:36:08;;;;;;;4.80;3.45;;;;;;;16.87;97.59;102070.97;6279822;22;20141;-77
2023/08/22 01:38:37;;;;;;;6.15;3.13;;;;;;;16.85;97.14;102072.59;6251154;22;20296;-76
2023/08/22 01:41:05;;;;;;;8.25;3.20;;;;;;;16.84;97.04;102071.09;6251979;22;20099;-76
2023/08/22 01:43:36;;;;;;;5.22;3.25;;;;;;;16.83;97.31;102070.38;6278206;22;20023;-77
2023/08/22 01:46:05;;;;;;;3.07;2.67;;;;;;;16.78;96.82;102071.00;6279408;22;20482;-76
2023/08/22 01:48:31;;;;;;;4.07;2.83;;;;;;;16.75;96.60;102066.50;6278711;22;20013;-76
2023/08/22 01:50:58;;;;;;;3.13;2.80;;;;;;;16.69;96.85;102068.31;6252106;22;20020;-76
2023/08/22 01:53:25;;;;;;;3.13;2.90;;;;;;;16.67;96.70;102073.38;6278476;22;20024;-76
2023/08/22 01:55:52;;;;;;;3.20;2.65;;;;;;;16.62;97.32;102071.25;6279137;22;20013;-76
2023/08/22 01:58:19;;;;;;;7.80;2.88;;;;;;;16.58;97.29;102070.66;6277965;22;20070;-76
2023/08/22 02:00:47;;;;;;;2.88;2.67;;;;;;;16.56;97.45;102071.13;6251850;22;20028;-76
2023/08/22 02:03:14;;;;;;;4.65;2.90;;;;;;;16.53;97.68;102061.25;6279382;22;20087;-76
2023/08/22 02:05:40;;;;;;;4.25;2.90;;;;;;;16.52;97.63;102067.09;6251151;22;20044;-76
2023/08/22 02:08:09;;;;;;;5.20;2.72;;;;;;;16.48;97.59;102061.84;6226884;22;20017;-76
2023/08/22 02:10:36;;;;;;;3.22;2.80;;;;;;;16.46;97.97;102066.19;6251594;22;20422;-77
2023/08/22 02:13:02;;;;;;;7.38;2.80;;;;;;;16.45;97.73;102067.38;6278485;22;20023;-76
2023/08/22 02:15:29;;;;;;;7.70;2.85;;;;;;;16.40;97.66;102060.66;6252133;22;20103;-76
2023/08/22 02:17:56;;;;;;;4.82;2.80;;;;;;;16.38;97.54;102059.63;6280564;22;20343;-76
2023/08/22 02:20:23;;;;;;;9.50;3.03;;;;;;;16.34;97.92;102060.53;6279839;22;20019;-76
2023/08/22 02:22:53;;;;;;;2.83;2.60;;;;;;;16.30;98.01;102059.94;6280480;22;20027;-76
2023/08/22 02:25:19;;;;;;;4.25;3.00;;;;;;;16.27;98.09;102060.81;6252406;22;20456;-76
2023/08/22 02:27:46;;;;;;;3.63;3.08;;;;;;;16.27;98.36;102066.19;6252476;22;20016;-77
2023/08/22 02:30:13;;;;;;;5.20;3.20;;;;;;;16.24;98.02;102066.34;6280556;22;20020;-76
2023/08/22 02:32:39;;;;;;;3.50;3.20;;;;;;;16.19;98.26;102067.66;6279565;22;20017;-76
2023/08/22 02:35:07;;;;;;;6.95;2.90;;;;;;;16.17;98.41;102061.25;6280121;22;20452;-76
2023/08/22 02:37:33;;;;;;;3.35;3.05;;;;;;;16.14;98.57;102062.88;6279720;22;20070;-76
2023/08/22 02:40:00;;;;;;;3.22;2.80;;;;;;;16.11;98.40;102060.34;6253243;22;20018;-76
2023/08/22 02:42:27;;;;;;;6.70;3.17;;;;;;;16.07;98.85;102060.47;6251478;22;20021;-76
2023/08/22 02:44:53;;;;;;;4.82;2.80;;;;;;;16.05;98.51;102060.19;6280380;22;20016;-76
2023/08/22 02:47:20;;;;;;;4.47;3.03;;;;;;;16.02;99.00;102061.06;6279718;22;20381;-76
2023/08/22 02:49:47;;;;;;;3.10;2.80;;;;;;;16.00;98.49;102069.56;6280476;22;20417;-76
2023/08/22 02:52:13;;;;;;;5.00;3.38;;;;;;;15.97;98.02;102067.78;6252944;22;20023;-77
2023/08/22 02:54:40;;;;;;;4.53;2.97;;;;;;;15.92;97.86;102057.63;6251964;22;20040;-75
2023/08/22 02:57:07;;;;;;;3.50;2.85;;;;;;;15.90;97.74;102061.97;6279222;22;20039;-75
2023/08/22 02:59:34;;;;;;;3.30;3.00;;;;;;;15.86;97.22;102064.03;6252180;22;20027;-75
2023/08/22 03:02:01;;;;;;;2.92;2.80;;;;;;;15.86;97.19;102055.97;6253378;22;20016;-76
2023/08/22 03:04:27;;;;;;;4.68;2.90;;;;;;;15.83;97.92;102054.94;6279699;22;20128;-76
2023/08/22 03:06:55;;;;;;;3.85;2.80;;;;;;;15.80;98.36;102049.69;6253175;22;20616;-76
2023/08/22 03:09:22;;;;;;;4.07;2.95;;;;;;;15.77;98.56;102047.91;6252328;22;20020;-76
2023/08/22 03:11:48;;;;;;;4.53;2.92;;;;;;;15.76;98.35;102039.09;6279865;22;20020;-76
2023/08/22 03:14:15;;;;;;;5.43;3.22;;;;;;;15.74;98.13;102044.16;6252896;22;20379;-76
2023/08/22 03:16:42;;;;;;;2.97;2.78;;;;;;;15.68;98.68;102049.34;6278735;22;20098;-76
2023/08/22 03:19:08;;;;;;;3.42;3.13;;;;;;;15.66;98.33;102048.31;6280485;22;20016;-76
2023/08/22 03:21:35;;;;;;;2.95;2.75;;;;;;;15.64;98.27;102048.75;6252187;22;20107;-76
2023/08/22 03:24:02;;;;;;;3.28;2.88;;;;;;;15.63;97.55;102054.56;6252948;22;20019;-76
2023/08/22 03:26:28;;;;;;;3.50;3.30;;;;;;;15.60;97.24;102052.75;6278472;22;20083;-75
2023/08/22 03:28:55;;;;;;;3.05;2.83;;;;;;;15.56;97.85;102047.53;6280025;22;20398;-76
2023/08/22 03:31:22;;;;;;;6.75;2.97;;;;;;;15.54;97.85;102051.84;6252034;22;20096;-75
2023/08/22 03:33:49;;;;;;;3.72;3.42;;;;;;;15.52;97.72;102044.22;6252743;22;20020;-76
2023/08/22 03:36:16;;;;;;;7.72;3.60;;;;;;;15.50;98.19;102041.22;6280416;22;20062;-76
2023/08/22 03:38:43;;;;;;;3.05;2.85;;;;;;;15.47;98.61;102049.41;6251644;22;20057;-76
2023/08/22 03:41:09;;;;;;;3.20;2.90;;;;;;;15.42;98.44;102042.69;6251780;22;20024;-76
2023/08/22 03:43:36;;;;;;;4.80;3.15;;;;;;;15.42;97.82;102044.63;6251896;22;20024;-76
2023/08/22 03:46:04;;;;;;;3.42;3.08;;;;;;;15.41;98.02;102037.75;6252712;22;20020;-75
2023/08/22 03:48:31;;;;;;;3.60;3.30;;;;;;;15.38;98.14;102028.66;6279313;22;20018;-75
2023/08/22 03:50:59;;;;;;;7.22;3.53;;;;;;;15.37;98.78;102032.53;6252689;22;20027;-75
2023/08/22 03:53:26;;;;;;;3.38;3.10;;;;;;;15.35;99.05;102032.97;6251889;22;20302;-76
2023/08/22 03:55:53;;;;;;;3.35;3.10;;;;;;;15.30;98.91;102033.53;6252352;22;20070;-75
2023/08/22 03:58:20;;;;;;;3.33;3.13;;;;;;;15.30;98.47;102035.47;6279516;22;20023;-75
2023/08/22 04:00:46;;;;;;;3.33;3.13;;;;;;;15.30;98.19;102028.16;6252722;22;20020;-75
2023/08/22 04:03:13;;;;;;;5.53;3.35;;;;;;;15.30;98.24;102027.41;6252284;22;20084;-75
2023/08/22 04:05:43;;;;;;;3.45;3.10;;;;;;;15.30;98.63;102027.41;6276288;22;20008;-75
2023/08/22 04:08:09;;;;;;;3.40;3.17;;;;;;;15.27;98.66;102026.38;6251533;22;20456;-76
2023/08/22 04:10:36;;;;;;;2.92;2.72;;;;;;;15.22;98.26;102021.56;6278250;22;20020;-76
2023/08/22 04:13:03;;;;;;;4.13;3.00;;;;;;;15.22;98.82;102024.25;6279770;22;20016;-76
2023/08/22 04:15:29;;;;;;;5.45;3.33;;;;;;;15.20;98.81;102028.56;6251992;22;20020;-75
2023/08/22 04:17:56;;;;;;;3.88;2.60;;;;;;;15.16;98.55;102027.97;6252630;22;20079;-75
2023/08/22 04:20:22;;;;;;;3.53;3.22;;;;;;;15.12;98.89;102030.78;6251974;22;20055;-76
2023/08/22 04:22:49;;;;;;;3.30;3.08;;;;;;;15.14;98.73;102030.34;6252674;22;20020;-75
2023/08/22 04:25:16;;;;;;;6.10;3.20;;;;;;;15.13;98.96;102026.16;6279484;22;20012;-75
2023/08/22 04:27:44;;;;;;;3.05;2.75;;;;;;;15.08;97.93;102027.47;6279694;22;20032;-75
2023/08/22 04:30:14;;;;;;;3.50;3.20;;;;;;;15.09;98.83;102028.97;6252722;22;20500;-75
2023/08/22 04:32:40;;;;;;;3.70;2.80;;;;;;;15.09;98.90;102036.28;6279210;22;20434;-75
2023/08/22 04:35:08;;;;;;;3.60;2.92;;;;;;;15.05;98.85;102038.34;6252459;22;20166;-75
2023/08/22 04:37:37;;;;;;;3.50;2.78;;;;;;;15.02;98.59;102034.59;6250758;22;20024;-76
2023/08/22 04:40:05;;;;;;;3.20;2.70;;;;;;;15.01;98.73;102035.78;6252229;22;20476;-76
2023/08/22 04:43:03;;;;;;;4.30;2.78;;;;;;;14.97;98.51;102043.22;6261106;22;20020;-75
2023/08/22 04:45:31;;;;;;;4.10;3.38;;;;;;;14.96;99.08;102045.13;6251866;22;20295;-76
2023/08/22 04:47:58;;;;;;;7.10;3.25;;;;;;;14.95;98.92;102054.38;6252521;22;20020;-76
2023/08/22 04:50:25;;;;;;;3.40;3.20;;;;;;;14.94;99.15;102062.84;6251743;22;20016;-76
2023/08/22 04:52:51;;;;;;;3.38;3.08;;;;;;;14.92;99.05;102065.97;6252285;22;20021;-76
2023/08/22 04:55:18;;;;;;;3.17;2.83;;;;;;;14.92;99.05;102062.53;6278962;22;20008;-76
2023/08/22 04:57:46;;;;;;;3.58;2.78;;;;;;;14.93;99.33;102066.72;6279473;22;20047;-76
2023/08/22 05:00:13;;;;;;;3.00;2.80;;;;;;;14.94;99.45;102066.28;6280245;22;20469;-76
2023/08/22 05:02:40;;;;;;;2.92;2.72;;;;;;;14.98;98.97;102060.78;6279171;22;20529;-76
2023/08/22 05:05:09;;;;;;;3.15;2.95;;;;;;;15.00;99.55;102048.44;6279596;22;20394;-76
2023/08/22 05:07:37;;;;;;;3.17;2.88;;;;;;;15.04;99.43;102059.03;6279003;22;20536;-76
2023/08/22 05:10:06;;;;;;;4.35;3.25;;;;;;;15.07;98.84;102060.09;6279837;22;20027;-77
2023/08/22 05:12:32;;;;;;;3.28;3.08;;;;;;;15.13;98.86;102053.00;6279307;22;20016;-76
2023/08/22 05:14:59;;;;;;;3.45;3.15;;;;;;;15.22;98.67;102058.38;6227266;22;20039;-76
2023/08/22 05:17:25;;;;;;;3.75;3.15;;;;;;;15.31;98.35;102053.06;6251632;22;20024;-76
2023/08/22 05:19:52;;;;;;;3.58;3.28;;;;;;;15.36;97.67;102049.81;6252555;22;20416;-77
2023/08/22 05:22:19;;;;;;;4.22;3.30;;;;;;;15.42;98.15;102048.06;6226082;22;20094;-75
2023/08/22 05:24:47;;;;;;;5.95;3.20;;;;;;;15.48;97.39;102046.28;6252196;22;20016;-76
2023/08/22 05:27:14;;;;;;;3.25;3.05;;;;;;;15.58;98.34;102039.06;6279757;22;20023;-75
2023/08/22 05:29:40;;;;;;;3.05;2.85;;;;;;;15.61;97.44;102036.22;6226758;22;20395;-75
2023/08/22 05:32:07;;;;;;;5.18;3.30;;;;;;;16.24;96.80;102037.53;6252260;22;20024;-76
2023/08/22 05:34:34;;;;;;;10.57;3.65;;;;;;;16.88;91.71;102039.44;6251868;22;20048;-74
2023/08/22 05:37:02;;;;;;;4.90;3.47;;;;;;;16.84;91.35;102041.53;6251804;22;20048;-75
2023/08/22 05:39:28;;;;;;;5.78;3.08;;;;;;;17.44;90.20;102044.19;6251714;22;20030;-74
2023/08/22 05:41:55;;;;;;;7.40;3.88;;;;;;;17.85;87.55;102047.28;6252032;22;20024;-74
2023/08/22 05:44:23;;;;;;;5.10;4.10;;;;;;;17.77;87.67;102035.38;6251822;22;20016;-74
2023/08/22 05:46:49;;;;;;;4.68;3.97;;;;;;;17.60;88.39;102035.72;6252235;22;20511;-74
2023/08/22 05:49:18;;;;;;;4.57;4.22;;;;;;;17.36;89.75;102034.94;6251878;22;20103;-74
2023/08/22 05:51:45;;;;;;;7.32;4.68;;;;;;;17.14;91.13;102048.66;6228227;22;20097;-74
2023/08/22 05:54:12;;;;;;;5.18;4.40;;;;;;;16.97;92.94;102048.22;6254185;22;20024;-73
2023/08/22 05:56:39;;;;;;;6.63;5.50;;;;;;;16.84;93.86;102054.97;6252650;22;20055;-74
2023/08/22 05:59:05;;;;;;;6.68;5.30;;;;;;;16.78;94.58;102054.13;6228254;22;20039;-74
2023/08/22 06:01:32;;;;;;;5.68;5.10;;;;;;;16.71;95.50;102051.72;6252557;22;20020;-75
2023/08/22 06:04:02;;;;;;;7.57;5.75;;;;;;;16.71;96.04;102054.41;6253408;22;20024;-74
2023/08/22 06:06:28;;;;;;;6.28;5.60;;;;;;;16.72;97.07;102047.84;6252236;22;20465;-75
2023/08/22 06:08:55;;;;;;;6.47;5.85;;;;;;;16.75;96.75;102049.63;6253287;22;20024;-75
2023/08/22 06:11:22;;;;;;;14.60;6.15;;;;;;;16.75;97.34;102052.31;6252996;22;20051;-75
2023/08/22 06:13:50;;;;;;;8.07;6.82;;;;;;;16.73;98.12;102055.47;6281023;22;20016;-74
2023/08/22 06:16:16;;;;;;;8.43;6.28;;;;;;;16.70;98.10;102047.53;6253229;22;20017;-74
2023/08/22 06:18:43;;;;;;;8.43;6.22;;;;;;;16.70;98.21;102044.84;6253615;22;20106;-76
2023/08/22 06:21:10;;;;;;;7.90;6.30;;;;;;;16.71;98.49;102049.78;6280306;22;20036;-74
2023/08/22 06:23:37;;;;;;;10.02;6.38;;;;;;;16.73;98.00;102050.09;6280437;22;20283;-74
2023/08/22 06:26:03;;;;;;;10.00;6.43;;;;;;;16.84;97.69;102044.97;6253472;22;20043;-75
2023/08/22 06:28:30;;;;;;;15.55;6.57;;;;;;;17.13;97.49;102043.72;6252512;22;20508;-75
2023/08/22 06:31:03;;;;;;;8.50;6.68;;;;;;;17.91;94.21;102050.84;6253772;22;20100;-79
2023/08/22 06:33:33;;;;;;;8.95;6.13;;;;;;;18.05;91.62;102058.22;6252211;22;20016;-77
2023/08/22 06:36:03;;;;;;;10.00;6.72;;;;;;;18.19;91.77;102054.09;6228336;22;20026;-75
2023/08/22 06:38:30;;;;;;;7.13;5.55;;;;;;;18.25;90.22;102054.94;6252678;22;20074;-75
2023/08/22 06:41:02;;;;;;;11.30;6.10;;;;;;;18.37;90.79;102056.66;6281211;22;20012;-75
2023/08/22 06:43:29;;;;;;;6.07;5.47;;;;;;;18.64;89.68;102059.13;6279905;22;20019;-76
2023/08/22 06:45:57;;;;;;;7.70;5.25;;;;;;;18.85;88.75;102061.94;6280782;22;20016;-77
2023/08/22 06:48:23;;;;;;;5.88;5.25;;;;;;;18.97;87.53;102055.50;6251823;22;20024;-77
2023/08/22 06:51:08;;;;;;;7.03;5.00;;;;;;;19.18;87.04;102048.25;6280758;22;20083;-76
2023/08/22 06:53:35;;;;;;;10.23;5.35;;;;;;;19.23;85.28;102051.00;6279589;22;20012;-74
2023/08/22 06:56:01;;;;;;;5.45;4.90;;;;;;;19.34;85.99;102050.44;6280626;22;20071;-76
2023/08/22 06:58:28;;;;;;;5.32;4.03;;;;;;;19.38;85.48;102051.00;6252632;22;20432;-78
2023/08/22 07:00:54;;;;;;;6.22;4.30;;;;;;;19.38;84.39;102053.69;6280238;22;20096;-78
2023/08/22 07:03:21;;;;;;;4.25;3.92;;;;;;;19.32;83.59;102053.59;6279518;22;20013;-78
2023/08/22 07:05:52;;;;;;;4.57;3.65;;;;;;;19.37;84.63;102054.91;6280911;22;20067;-78
2023/08/22 07:08:20;;;;;;;5.10;3.90;;;;;;;19.46;83.58;102062.16;6279369;22;20084;-79
2023/08/22 07:10:46;;;;;;;10.43;3.70;;;;;;;19.51;82.89;102067.66;6279612;22;20016;-78
2023/08/22 07:13:14;;;;;;;4.93;3.60;;;;;;;19.56;83.45;102063.56;6252970;22;20135;-79
2023/08/22 07:15:42;;;;;;;8.15;3.40;;;;;;;19.64;82.47;102064.63;6279011;22;20012;-78
2023/08/22 07:18:08;;;;;;;3.53;3.22;;;;;;;19.85;82.63;102066.16;6279161;22;20027;-79
2023/08/22 07:20:35;;;;;;;4.72;3.60;;;;;;;19.97;80.31;102054.28;6279113;22;20022;-78
2023/08/22 07:23:02;;;;;;;4.65;2.80;;;;;;;20.21;79.71;102067.56;6253673;22;20023;-79
2023/08/22 07:25:28;;;;;;;7.35;3.50;;;;;;;20.30;79.51;102070.13;6279996;22;20083;-79
2023/08/22 07:27:55;;;;;;;11.68;3.40;;;;;;;20.36;78.61;102067.47;6253896;22;20024;-78
2023/08/22 07:30:22;;;;;;;3.20;2.90;;;;;;;20.46;77.13;102073.50;6279793;22;20012;-78
2023/08/22 07:32:48;;;;;;;8.10;2.95;;;;;;;20.53;76.13;102081.19;6280490;22;20087;-79
2023/08/22 07:35:15;;;;;;;5.82;3.20;;;;;;;20.58;75.99;102083.22;6280748;22;20012;-80
2023/08/22 07:37:42;;;;;;;6.63;3.80;;;;;;;20.69;76.47;102069.81;6279965;22;20017;-78
2023/08/22 07:40:09;;;;;;;4.22;3.60;;;;;;;20.78;75.23;102075.06;6280959;22;20012;-78
2023/08/22 07:42:35;;;;;;;8.93;3.80;;;;;;;20.87;74.78;102077.56;6280355;22;20094;-78
2023/08/22 07:45:03;;;;;;;5.88;4.40;;;;;;;20.95;75.24;102097.56;6281028;22;20397;-78
2023/08/22 07:47:30;;;;;;;4.82;3.78;;;;;;;21.06;74.86;102098.91;6278891;22;20078;-78
2023/08/22 07:49:57;;;;;;;6.68;3.83;;;;;;;21.12;75.69;102095.03;6280788;22;20439;-79
2023/08/22 07:52:23;;;;;;;6.82;3.90;;;;;;;21.12;74.19;102103.13;6280435;22;20468;-78
2023/08/22 07:54:50;;;;;;;4.53;3.45;;;;;;;21.08;73.59;102108.03;6253881;22;20465;-78
2023/08/22 07:57:17;;;;;;;7.25;3.85;;;;;;;21.03;74.03;102129.63;6280967;22;20478;-78
2023/08/22 07:59:45;;;;;;;5.43;4.03;;;;;;;21.08;74.09;102113.44;6281324;22;20016;-78
2023/08/22 08:02:12;;;;;;;13.13;3.70;;;;;;;21.10;74.32;102121.84;6280042;22;20127;-79
2023/08/22 08:04:39;;;;;;;5.68;4.05;;;;;;;21.02;74.19;102118.06;6279769;22;20032;-79
2023/08/22 08:07:05;;;;;;;8.90;4.13;;;;;;;21.00;75.04;102123.22;6281198;22;20378;-79
2023/08/22 08:09:33;;;;;;;7.65;4.18;;;;;;;21.01;75.58;102126.66;6280524;22;20022;-78
2023/08/22 08:12:03;;;;;;;7.40;4.15;;;;;;;21.12;75.36;102127.50;6280825;22;20016;-79
2023/08/22 08:14:29;;;;;;;5.82;3.47;;;;;;;21.21;74.21;102123.88;6280025;22;20346;-79
2023/08/22 08:16:56;;;;;;;4.22;3.83;;;;;;;21.25;73.73;102127.88;6253110;22;20486;-79
2023/08/22 08:19:23;;;;;;;4.90;3.17;;;;;;;21.24;73.44;102122.94;6252125;22;20586;-79
2023/08/22 08:21:53;;;;;;;9.00;3.22;;;;;;;21.32;73.59;102117.81;6253580;22;20516;-79
2023/08/22 08:24:19;;;;;;;5.03;2.88;;;;;;;21.42;73.67;102114.47;6252154;22;20016;-79
2023/08/22 08:26:46;;;;;;;3.40;2.78;;;;;;;21.52;73.37;102110.34;6280086;22;20361;-79
2023/08/22 08:29:13;;;;;;;6.97;3.17;;;;;;;21.55;72.52;102116.78;6279980;22;20461;-79
2023/08/22 08:31:39;;;;;;;5.43;3.42;;;;;;;21.69;72.53;102118.56;6278363;22;20020;-79
2023/08/22 08:34:06;;;;;;;8.07;3.58;;;;;;;21.83;71.78;102111.50;6252625;22;20016;-79
2023/08/22 08:36:32;;;;;;;4.75;2.60;;;;;;;22.03;71.06;102105.19;6252203;22;20016;-78
2023/08/22 08:38:59;;;;;;;5.40;2.15;;;;;;;22.22;69.20;102109.72;6280753;22;20110;-78
2023/08/22 08:41:28;;;;;;;4.90;2.13;;;;;;;22.29;67.94;102103.84;6279792;22;20068;-79
2023/08/22 08:43:57;;;;;;;4.90;2.33;;;;;;;22.37;69.47;102114.97;6252637;22;20027;-79
2023/08/22 08:46:25;;;;;;;3.70;2.45;;;;;;;22.40;68.59;102116.66;6252079;22;20016;-79
2023/08/22 08:48:53;;;;;;;5.15;2.40;;;;;;;22.40;66.86;102115.94;6253213;22;20078;-80
2023/08/22 08:51:20;;;;;;;3.28;1.90;;;;;;;22.26;67.19;102117.63;6279545;22;20052;-80
2023/08/22 08:53:48;;;;;;;4.10;2.10;;;;;;;22.23;67.13;102107.75;6280328;22;20012;-79
2023/08/22 08:56:15;;;;;;;2.30;2.10;;;;;;;22.25;68.06;102102.59;6252846;22;20016;-79
2023/08/22 08:58:43;;;;;;;7.13;1.88;;;;;;;22.21;66.31;102102.81;6278764;22;20016;-79
2023/08/22 09:01:10;;;;;;;3.42;1.65;;;;;;;22.34;67.09;102102.38;6279843;22;20507;-78
2023/08/22 09:03:37;;;;;;;3.83;1.70;;;;;;;22.39;66.19;102112.50;6278938;22;20742;-78
2023/08/22 09:06:04;;;;;;;3.00;1.95;;;;;;;22.52;65.74;102101.91;6279837;22;20091;-80
2023/08/22 09:08:30;;;;;;;5.03;1.90;;;;;;;22.82;63.74;102094.06;6279397;22;20082;-78
2023/08/22 09:10:57;;;;;;;3.22;1.90;;;;;;;23.02;63.53;102100.50;6252380;22;20017;-78
2023/08/22 09:13:25;;;;;;;6.38;2.10;;;;;;;23.16;62.07;102094.09;6278746;22;20016;-78
2023/08/22 09:16:08;;;;;;;2.58;1.90;;;;;;;23.23;63.23;102097.03;6280259;22;20017;-78
2023/08/22 09:18:40;;;;;;;4.53;2.38;;;;;;;23.33;61.62;102099.50;6278863;22;20020;-78
2023/08/22 09:21:07;;;;;;;2.85;1.90;;;;;;;23.51;61.70;102105.16;6252727;22;20016;-78
2023/08/22 09:23:34;;;;;;;4.03;1.92;;;;;;;23.61;60.95;102116.50;6279094;22;20086;-79
2023/08/22 09:26:02;;;;;;;3.80;2.08;;;;;;;23.64;59.98;102112.06;6281094;22;20468;-78
2023/08/22 09:28:29;;;;;;;2.97;1.85;;;;;;;23.70;59.64;102101.91;6252745;22;20034;-78
2023/08/22 09:30:58;;;;;;;4.68;2.28;;;;;;;23.89;60.62;102100.88;6281386;22;20464;-78
2023/08/22 09:33:25;;;;;;;2.45;2.10;;;;;;;24.02;60.78;102108.47;6253198;22;20017;-78
2023/08/22 09:35:56;;;;;;;3.53;2.28;;;;;;;24.11;59.24;102104.72;6253735;22;20023;-78
2023/08/22 09:38:23;;;;;;;5.65;2.42;;;;;;;24.15;60.31;102097.78;6280642;22;20453;-78
2023/08/22 09:40:52;;;;;;;3.63;2.50;;;;;;;24.05;59.51;102099.31;6254572;22;20017;-78
2023/08/22 09:43:19;;;;;;;3.65;2.13;;;;;;;24.03;59.75;102095.59;6279170;22;20016;-79
2023/08/22 09:45:49;;;;;;;2.70;2.10;;;;;;;24.10;59.76;102097.81;6280732;22;20089;-79
2023/08/22 09:48:22;;;;;;;5.50;2.10;;;;;;;24.21;58.42;102092.31;6280697;22;20076;-78
2023/08/22 09:50:51;;;;;;;3.33;1.88;;;;;;;24.49;59.92;102095.63;6280784;22;20019;-78
2023/08/22 09:53:20;;;;;;;2.88;1.80;;;;;;;24.59;58.18;102099.53;6253543;22;20527;-79
2023/08/22 09:55:47;;;;;;;2.53;1.83;;;;;;;24.47;57.38;102106.28;6280420;22;20140;-78
2023/08/22 09:58:15;;;;;;;2.35;1.60;;;;;;;24.44;57.03;102106.56;6280598;22;20119;-79
2023/08/22 10:00:44;;;;;;;6.03;1.60;;;;;;;24.38;56.25;102114.03;6280207;22;20016;-78
2023/08/22 10:03:12;;;;;;;2.47;1.17;;;;;;;24.29;54.62;102112.34;6281148;22;20097;-79
2023/08/22 10:05:41;;;;;;;1.60;1.40;;;;;;;24.47;55.87;102111.72;6252785;22;20020;-79
2023/08/22 10:08:07;;;;;;;1.98;1.40;;;;;;;24.55;56.72;102114.66;6281208;22;20023;-78
2023/08/22 10:10:35;;;;;;;1.73;1.50;;;;;;;24.66;57.22;102116.56;6280614;22;20039;-79
2023/08/22 10:13:03;;;;;;;2.75;1.50;;;;;;;24.83;56.60;102109.75;6253003;22;20439;-79
2023/08/22 10:15:32;;;;;;;1.42;1.13;;;;;;;24.69;55.51;102108.13;6253135;22;20024;-79
2023/08/22 10:17:59;;;;;;;1.75;1.65;;;;;;;24.70;55.81;102109.63;6280889;22;20091;-79
2023/08/22 10:20:25;;;;;;;2.25;1.70;;;;;;;24.68;56.24;102114.09;6280355;22;20016;-79
2023/08/22 10:22:52;;;;;;;7.50;3.45;;;;;;;24.67;56.91;102112.59;6280893;22;20403;-79
2023/08/22 10:25:19;;;;;;;1.42;1.33;;;;;;;24.62;56.63;102118.81;6280310;22;20020;-78
2023/08/22 10:27:47;;;;;;;4.40;1.98;;;;;;;24.60;56.90;102113.88;6254004;22;20012;-78
2023/08/22 10:30:14;;;;;;;2.22;2.00;;;;;;;24.59;55.92;102112.41;6281202;22;20012;-78
2023/08/22 10:32:41;;;;;;;4.78;1.90;;;;;;;24.61;56.20;102115.38;6252895;22;20017;-78
2023/08/22 10:35:12;;;;;;;2.17;1.92;;;;;;;24.59;56.80;102117.84;6280726;22;20087;-78
2023/08/22 10:37:50;;;;;;;2.60;2.28;;;;;;;24.57;56.39;102120.34;6280078;22;20078;-79
2023/08/22 10:40:23;;;;;;;5.13;2.28;;;;;;;24.56;56.39;102108.72;6280691;22;20469;-80
2023/08/22 10:42:52;;;;;;;7.55;2.10;;;;;;;24.67;56.92;102107.16;6281686;22;20012;-81
2023/08/22 10:45:18;;;;;;;5.40;2.45;;;;;;;24.65;56.69;102110.38;6253718;22;20016;-81
2023/08/22 10:47:49;;;;;;;8.25;2.30;;;;;;;24.77;57.77;102117.25;6254041;22;20331;-80
2023/08/22 10:50:16;;;;;;;2.30;2.10;;;;;;;24.79;56.73;102114.72;6281215;22;20047;-80
2023/08/22 10:52:43;;;;;;;4.05;2.40;;;;;;;24.70;57.46;102117.03;6280921;22;20020;-80
2023/08/22 10:55:12;;;;;;;3.17;2.20;;;;;;;24.78;57.93;102113.28;6253513;22;20458;-80
2023/08/22 10:57:47;;;;;;;5.60;2.38;;;;;;;25.09;58.57;102114.78;6253371;22;20492;-80
2023/08/22 11:00:22;;;;;;;10.07;3.28;;;;;;;25.10;58.11;102118.25;6253583;22;20023;-80
2023/08/22 11:02:51;;;;;;;4.40;2.97;;;;;;;24.96;58.22;102114.63;6281455;22;20012;-80
2023/08/22 11:05:18;;;;;;;4.28;3.00;;;;;;;25.06;58.24;102109.59;6281121;22;20023;-79
2023/08/22 11:07:46;;;;;;;6.28;3.17;;;;;;;25.36;58.11;102107.59;6281636;22;20018;-80
2023/08/22 11:10:24;;;;;;;3.60;3.30;;;;;;;25.47;58.34;102114.91;6253859;22;20023;-80
2023/08/22 11:12:54;;;;;;;9.20;3.50;;;;;;;25.31;57.61;102122.00;6281162;22;20035;-80
2023/08/22 11:15:21;;;;;;;5.65;3.10;;;;;;;25.60;58.64;102118.47;6280126;22;20492;-79
2023/08/22 11:17:50;;;;;;;6.70;3.45;;;;;;;25.50;56.62;102122.06;6280886;22;20020;-79
2023/08/22 11:20:20;;;;;;;6.13;3.60;;;;;;;25.42;57.22;102119.19;6280912;22;20395;-79
2023/08/22 11:22:47;;;;;;;5.22;3.65;;;;;;;25.42;58.48;102129.34;6280919;22;20020;-80
2023/08/22 11:25:22;;;;;;;5.75;4.05;;;;;;;25.46;58.46;102124.34;6280494;22;20017;-79
2023/08/22 11:27:49;;;;;;;5.25;3.40;;;;;;;25.41;55.67;102112.25;6281169;22;20019;-79